Time;durP1;ratioP1;P1;durP2;ratioP2;P2;SDS_P1;SDS_P2;PMS_P1;PMS_P2;Temp;Humidity;BMP_temperature;BMP_pressure;BME280_temperature;BME280_humidity;BME280_pressure;Samples;Min_cycle;Max_cycle;Signal;HPM_P1;HPM_P2
2022/05/25 00:01:48;;;;;;;4.63;4.43;;;;;;;10.80;100.00;100798.25;6091375;23;20040;-74
2022/05/25 00:04:15;;;;;;;4.22;4.03;;;;;;;10.77;100.00;100794.84;6094557;23;20055;-72
2022/05/25 00:06:42;;;;;;;4.30;4.10;;;;;;;10.74;100.00;100788.91;6110148;23;20029;-73
2022/05/25 00:09:09;;;;;;;4.30;4.10;;;;;;;10.53;100.00;100764.63;6109299;23;20030;-73
2022/05/25 00:11:36;;;;;;;4.80;4.60;;;;;;;10.69;100.00;100791.78;6108544;23;20020;-73
2022/05/25 00:14:03;;;;;;;4.78;4.47;;;;;;;10.15;100.00;100720.16;6085025;23;20034;-73
2022/05/25 00:16:30;;;;;;;5.65;5.45;;;;;;;10.17;100.00;100723.53;6105909;23;20654;-73
2022/05/25 00:21:42;;;;;;;4.25;4.05;;;;;;;10.19;100.00;100761.03;6113190;23;20494;-73
2022/05/25 00:24:08;;;;;;;4.50;4.30;;;;;;;10.49;100.00;100810.31;6102999;23;20026;-73
2022/05/25 00:26:34;;;;;;;5.72;5.53;;;;;;;10.47;100.00;100818.25;6112236;23;20553;-73
2022/05/25 00:29:02;;;;;;;4.30;4.10;;;;;;;9.97;100.00;100748.97;6078423;23;20453;-74
2022/05/25 00:31:30;;;;;;;6.03;5.72;;;;;;;10.35;100.00;100813.63;6077222;23;20646;-75
2022/05/25 00:33:58;;;;;;;4.47;4.28;;;;;;;10.29;100.00;100819.97;6128327;23;20497;-75
2022/05/25 00:36:24;;;;;;;5.65;5.45;;;;;;;9.45;100.00;100685.97;6099274;23;20022;-75
2022/05/25 00:38:51;;;;;;;4.60;4.40;;;;;;;10.15;100.00;100825.88;6112208;23;21078;-73
2022/05/25 00:41:22;;;;;;;4.53;4.32;;;;;;;9.15;100.00;100662.09;6104103;23;20040;-72
2022/05/25 00:43:49;;;;;;;4.20;4.00;;;;;;;10.04;100.00;100820.31;6104178;23;20052;-74
2022/05/25 00:46:18;;;;;;;4.20;4.00;;;;;;;8.85;100.00;100643.41;6088835;23;20021;-72
2022/05/25 00:48:49;;;;;;;4.30;4.10;;;;;;;9.94;100.00;100825.16;6104276;23;20450;-74
2022/05/25 00:51:22;;;;;;;4.15;3.95;;;;;;;9.74;100.00;100802.50;6103378;23;20032;-72
2022/05/25 00:53:53;;;;;;;4.30;4.10;;;;;;;9.41;100.00;100755.16;6080491;23;20029;-74
2022/05/25 00:56:23;;;;;;;5.63;5.40;;;;;;;9.87;100.00;100831.59;6102109;23;20026;-73
2022/05/25 00:58:56;;;;;;;4.50;4.30;;;;;;;9.86;100.00;100840.41;6076780;23;20034;-73
2022/05/25 01:01:22;;;;;;;5.22;5.03;;;;;;;8.74;100.00;100660.47;6097287;23;20435;-72
2022/05/25 01:03:49;;;;;;;4.30;4.10;;;;;;;9.47;100.00;100788.91;6092113;23;20041;-74
2022/05/25 01:06:34;;;;;;;4.10;3.90;;;;;;;9.05;100.00;100708.78;6103078;23;20037;-71
2022/05/25 01:09:16;;;;;;;4.60;4.40;;;;;;;9.77;100.00;100841.66;6071573;23;20086;-71
2022/05/25 01:11:57;;;;;;;4.47;4.27;;;;;;;9.55;100.00;100823.47;6082521;23;20024;-72
2022/05/25 01:14:38;;;;;;;4.28;4.07;;;;;;;9.69;100.00;100848.19;6078754;23;20021;-74
2022/05/25 01:17:27;;;;;;;4.20;4.00;;;;;;;9.69;100.00;100848.19;6115361;23;20479;-73
2022/05/25 01:20:42;;;;;;;4.60;4.30;;;;;;;9.69;100.00;100848.19;6112740;23;20024;-72
2022/05/25 01:23:26;;;;;;;4.25;4.05;;;;;;;9.60;100.00;100852.06;6045659;23;20033;-73
2022/05/25 01:25:58;;;;;;;4.18;3.97;;;;;;;9.56;100.00;100846.13;6043579;23;20043;-73
2022/05/25 01:28:55;;;;;;;5.78;5.55;;;;;;;9.10;100.00;100780.13;6070496;23;20036;-73
2022/05/25 01:31:28;;;;;;;4.90;4.70;;;;;;;8.77;100.00;100745.81;6089302;23;20041;-71
2022/05/25 01:34:01;;;;;;;4.20;4.00;;;;;;;8.90;100.00;100772.28;6098310;23;20048;-73
2022/05/25 01:36:40;;;;;;;5.72;5.47;;;;;;;9.37;100.00;100868.84;6083140;23;20073;-74
2022/05/25 01:39:15;;;;;;;4.20;4.00;;;;;;;8.77;100.00;100778.06;6085487;23;20601;-74
2022/05/25 01:41:48;;;;;;;4.22;4.03;;;;;;;9.35;100.00;100866.28;6113774;23;20025;-71
2022/05/25 01:44:23;;;;;;;4.25;4.05;;;;;;;8.88;100.00;100779.34;6095136;23;20083;-71
2022/05/25 01:46:55;;;;;;;4.18;3.97;;;;;;;9.32;100.00;100858.56;6114227;23;20013;-73
2022/05/25 01:49:28;;;;;;;5.40;5.20;;;;;;;9.28;100.00;100862.25;6069623;23;20038;-73
2022/05/25 01:52:00;;;;;;;4.30;4.10;;;;;;;9.30;100.00;100867.38;6104570;23;20077;-73
2022/05/25 01:54:32;;;;;;;5.75;5.45;;;;;;;8.03;100.00;100656.56;6092605;23;20024;-73
2022/05/25 01:57:04;;;;;;;4.30;4.10;;;;;;;8.88;100.00;100809.00;6099803;23;20398;-72
2022/05/25 01:59:31;;;;;;;5.80;5.55;;;;;;;8.28;100.00;100714.75;6102201;23;20502;-72
2022/05/25 02:04:49;;;;;;;4.13;3.92;;;;;;;9.21;100.00;100905.31;6077609;23;20044;-75
2022/05/25 02:07:43;;;;;;;4.05;3.85;;;;;;;9.15;100.00;100887.25;6105341;23;20036;-72
2022/05/25 02:10:12;;;;;;;3.95;3.78;;;;;;;9.13;100.00;100876.00;6105128;23;20026;-74
2022/05/25 02:12:54;;;;;;;4.30;4.10;;;;;;;9.12;100.00;100876.91;6090998;23;20014;-73
2022/05/25 02:15:32;;;;;;;5.18;4.97;;;;;;;9.10;100.00;100876.13;6113155;23;20035;-72
2022/05/25 02:18:10;;;;;;;4.22;4.03;;;;;;;8.97;100.00;100865.34;6104299;23;20010;-75
2022/05/25 02:20:48;;;;;;;3.80;3.70;;;;;;;9.05;100.00;100876.31;6111050;23;20774;-72
2022/05/25 02:23:27;;;;;;;4.55;4.35;;;;;;;9.03;100.00;100883.41;6113977;23;20044;-72
2022/05/25 02:26:02;;;;;;;4.30;4.10;;;;;;;9.01;100.00;100881.75;6085108;23;20617;-70
2022/05/25 02:28:37;;;;;;;5.70;5.47;;;;;;;8.99;100.00;100894.91;6102079;23;20032;-71
2022/05/25 02:31:08;;;;;;;4.20;4.00;;;;;;;8.99;100.00;100892.28;6125042;23;20018;-71
2022/05/25 02:33:42;;;;;;;4.75;4.55;;;;;;;8.48;100.00;100818.53;6081983;23;20443;-73
2022/05/25 02:36:10;;;;;;;5.35;5.15;;;;;;;8.94;100.00;100900.34;6094360;23;20018;-72
2022/05/25 02:38:39;;;;;;;4.50;4.30;;;;;;;8.93;100.00;100903.88;6114448;23;20020;-74
2022/05/25 02:41:13;;;;;;;4.30;4.10;;;;;;;8.91;100.00;100903.09;6094650;23;20034;-71
2022/05/25 02:43:40;;;;;;;4.40;4.20;;;;;;;8.50;100.00;100845.50;6099769;23;20022;-74
2022/05/25 02:46:08;;;;;;;4.10;3.90;;;;;;;8.90;100.00;100900.53;6109928;23;20024;-73
2022/05/25 02:48:36;;;;;;;5.05;4.85;;;;;;;8.85;100.00;100900.72;6105714;23;20502;-72
2022/05/25 02:51:03;;;;;;;4.20;4.00;;;;;;;8.84;100.00;100911.25;6083472;23;20026;-72
2022/05/25 02:53:29;;;;;;;5.97;5.68;;;;;;;8.55;100.00;100867.06;6102074;23;20016;-71
2022/05/25 02:55:55;;;;;;;4.10;3.90;;;;;;;8.27;100.00;100830.69;6111015;23;20509;-72
2022/05/25 02:58:22;;;;;;;4.97;4.78;;;;;;;8.78;100.00;100910.59;6079780;23;20020;-70
2022/05/25 03:00:48;;;;;;;4.18;3.97;;;;;;;8.40;100.00;100854.59;6107713;23;20040;-71
2022/05/25 03:03:15;;;;;;;4.13;3.92;;;;;;;8.76;100.00;100907.19;6076816;23;20148;-72
2022/05/25 03:05:44;;;;;;;4.20;4.00;;;;;;;8.74;100.00;100918.63;6113153;23;20064;-75
2022/05/25 03:08:11;;;;;;;3.83;3.72;;;;;;;8.73;100.00;100922.16;6111970;23;20536;-74
2022/05/25 03:10:37;;;;;;;4.65;4.45;;;;;;;8.73;100.00;100927.41;6079100;23;20040;-73
2022/05/25 03:13:08;;;;;;;4.20;4.00;;;;;;;8.35;100.00;100870.44;6115276;23;20017;-74
2022/05/25 03:15:35;;;;;;;5.57;5.38;;;;;;;8.73;100.00;100922.16;6101937;23;20036;-73
2022/05/25 03:18:02;;;;;;;4.18;3.97;;;;;;;8.73;100.00;100928.25;6116541;23;20854;-73
2022/05/25 03:20:29;;;;;;;4.00;3.80;;;;;;;8.73;100.00;100930.03;6088033;23;20021;-73
2022/05/25 03:22:55;;;;;;;4.28;4.07;;;;;;;8.72;100.00;100921.31;6108746;23;20025;-74
2022/05/25 03:25:22;;;;;;;4.10;3.90;;;;;;;8.75;100.00;100925.56;6089579;23;20384;-73
2022/05/25 03:27:49;;;;;;;4.07;3.88;;;;;;;8.34;100.00;100860.06;6110953;23;20017;-70
2022/05/25 03:30:17;;;;;;;3.80;3.70;;;;;;;8.86;100.00;100930.34;6107311;23;20430;-73
2022/05/25 03:32:43;;;;;;;3.92;3.78;;;;;;;7.49;100.00;100724.06;6095607;23;20096;-73
2022/05/25 03:35:10;;;;;;;4.00;3.80;;;;;;;8.48;100.00;100889.16;6099687;23;20601;-73
2022/05/25 03:37:37;;;;;;;4.10;3.90;;;;;;;8.84;100.00;100940.03;6100001;23;20451;-73
2022/05/25 03:40:08;;;;;;;3.88;3.78;;;;;;;8.37;100.00;100857.31;6123476;23;20093;-72
2022/05/25 03:42:36;;;;;;;5.25;5.05;;;;;;;8.92;100.00;100951.03;6098764;23;20013;-71
2022/05/25 03:45:04;;;;;;;4.07;3.88;;;;;;;8.94;100.00;100943.97;6098400;23;20047;-72
2022/05/25 03:47:32;;;;;;;5.88;5.63;;;;;;;8.73;100.00;100920.41;6081769;23;20028;-72
2022/05/25 03:49:58;;;;;;;4.18;3.97;;;;;;;8.98;100.00;100982.22;6110564;23;20013;-71
2022/05/25 03:52:25;;;;;;;5.55;5.32;;;;;;;9.02;100.00;100955.00;6070173;23;20038;-71
2022/05/25 03:54:52;;;;;;;4.07;3.88;;;;;;;8.66;100.00;100895.41;6093854;23;20110;-72
2022/05/25 03:57:18;;;;;;;4.72;4.53;;;;;;;8.74;100.00;100908.16;6072446;23;20037;-70
2022/05/25 03:59:46;;;;;;;3.90;3.75;;;;;;;9.10;100.00;100967.75;6098184;23;20025;-72
2022/05/25 04:02:13;;;;;;;4.22;4.03;;;;;;;8.78;100.00;100909.75;6056609;23;20455;-71
2022/05/25 04:04:40;;;;;;;3.88;3.75;;;;;;;9.16;100.00;100972.72;6070777;23;20014;-71
2022/05/25 04:07:08;;;;;;;4.63;4.35;;;;;;;9.44;100.00;100987.28;6112147;23;20417;-72
2022/05/25 04:09:35;;;;;;;4.75;4.55;;;;;;;10.21;100.00;100976.88;6075499;23;20035;-70
2022/05/25 04:12:01;;;;;;;4.45;4.25;;;;;;;11.03;100.00;100971.25;6093339;23;20016;-71
2022/05/25 04:14:28;;;;;;;5.20;5.00;;;;;;;11.55;100.00;100930.94;6099255;23;20030;-70
2022/05/25 04:16:54;;;;;;;4.40;4.20;;;;;;;12.74;100.00;100968.28;6084847;23;20379;-72
2022/05/25 04:19:21;;;;;;;4.80;4.60;;;;;;;12.19;94.40;100755.63;6096698;23;20370;-71
2022/05/25 04:21:47;;;;;;;4.55;4.35;;;;;;;14.04;88.02;100972.03;6082777;23;20062;-71
2022/05/25 04:24:15;;;;;;;4.85;4.65;;;;;;;13.56;80.18;100890.56;6091467;23;20022;-71
2022/05/25 04:26:42;;;;;;;4.85;4.65;;;;;;;14.33;78.62;100966.72;6057342;23;20380;-71
2022/05/25 04:29:08;;;;;;;4.55;4.35;;;;;;;14.66;75.18;100984.88;6124306;23;20069;-72
2022/05/25 04:31:35;;;;;;;4.90;4.70;;;;;;;15.05;74.16;100985.00;6090428;23;20083;-71
2022/05/25 04:34:01;;;;;;;4.90;4.70;;;;;;;15.61;72.89;100982.09;6098817;23;20029;-74
2022/05/25 04:36:28;;;;;;;6.28;5.97;;;;;;;15.73;71.39;100925.72;6071525;23;20395;-73
2022/05/25 04:38:54;;;;;;;5.10;4.90;;;;;;;15.95;65.84;100928.53;6097385;23;20474;-71
2022/05/25 04:41:21;;;;;;;5.95;5.65;;;;;;;16.22;66.66;100984.97;6078833;23;20024;-72
2022/05/25 04:43:47;;;;;;;4.90;4.70;;;;;;;16.39;65.83;100989.03;6100982;23;20013;-72
2022/05/25 04:46:14;;;;;;;4.70;4.50;;;;;;;16.60;65.79;100926.53;6075503;23;20372;-73
2022/05/25 04:48:40;;;;;;;5.07;4.88;;;;;;;17.47;63.90;100993.38;6099214;23;20185;-72
2022/05/25 04:51:07;;;;;;;5.13;4.93;;;;;;;17.24;59.89;100992.50;6084592;23;20244;-74
2022/05/25 04:53:33;;;;;;;6.97;6.57;;;;;;;16.46;61.76;100937.31;6097362;23;20013;-71
2022/05/25 04:58:47;;;;;;;5.55;5.25;;;;;;;17.68;59.69;101003.28;6104175;23;20021;-72
2022/05/25 05:01:16;;;;;;;5.10;4.90;;;;;;;17.68;57.66;100960.81;6084288;23;20057;-74
2022/05/25 05:03:43;;;;;;;5.65;5.35;;;;;;;18.50;58.58;101003.94;6082284;23;20018;-72
2022/05/25 05:06:11;;;;;;;5.15;4.95;;;;;;;18.16;58.17;100938.50;6085021;23;20026;-72
2022/05/25 05:08:39;;;;;;;5.50;5.20;;;;;;;18.87;55.33;100989.47;6104459;23;20049;-72
2022/05/25 05:11:14;;;;;;;5.40;5.20;;;;;;;18.87;55.32;101018.72;6103810;23;20248;-73
2022/05/25 05:13:40;;;;;;;5.70;5.40;;;;;;;19.35;55.51;101028.91;6099478;23;20373;-73
2022/05/25 05:16:09;;;;;;;5.60;5.30;;;;;;;18.86;52.53;101015.22;6105763;23;20378;-71
2022/05/25 05:18:37;;;;;;;5.93;5.65;;;;;;;18.51;56.79;101012.75;6073432;23;20017;-74
2022/05/25 05:21:04;;;;;;;5.38;5.18;;;;;;;18.60;55.98;101019.13;6115132;23;20116;-73
2022/05/25 05:23:30;;;;;;;5.35;5.15;;;;;;;19.22;54.76;100993.66;6086546;23;20109;-74
2022/05/25 05:25:57;;;;;;;5.50;5.30;;;;;;;18.95;51.43;100949.78;6113250;23;20516;-72
2022/05/25 05:28:32;;;;;;;5.68;5.38;;;;;;;19.44;52.02;101029.94;6110815;23;20024;-73
2022/05/25 05:31:02;;;;;;;5.38;5.18;;;;;;;19.59;53.34;101019.84;6097382;23;20093;-74
2022/05/25 05:33:29;;;;;;;5.22;5.03;;;;;;;20.14;52.88;101023.06;6105874;23;20021;-71
2022/05/25 05:36:11;;;;;;;6.05;5.65;;;;;;;20.08;50.76;101024.44;6127107;23;20019;-73
2022/05/25 05:38:49;;;;;;;5.60;5.30;;;;;;;20.58;50.84;101028.13;6132475;23;20017;-72
2022/05/25 05:41:18;;;;;;;5.40;5.20;;;;;;;20.87;49.78;101025.56;6113846;23;20085;-72
2022/05/25 05:43:44;;;;;;;5.60;5.35;;;;;;;21.00;48.80;101033.25;6108475;23;20443;-71
2022/05/25 05:46:12;;;;;;;5.50;5.13;;;;;;;20.32;48.99;100973.47;6111060;23;20495;-71
2022/05/25 05:48:39;;;;;;;6.10;5.80;;;;;;;19.61;48.06;100960.16;6082646;23;20085;-72
2022/05/25 05:51:06;;;;;;;6.30;5.32;;;;;;;20.02;50.19;101035.63;6111086;23;20025;-74
2022/05/25 05:53:33;;;;;;;7.20;6.90;;;;;;;20.08;49.86;100989.81;6106381;23;20017;-72
2022/05/25 05:55:59;;;;;;;6.07;5.68;;;;;;;20.36;48.77;101035.34;6072458;23;20045;-74
2022/05/25 05:58:26;;;;;;;7.03;6.65;;;;;;;20.48;49.81;101033.44;6106229;23;20213;-75
2022/05/25 06:00:52;;;;;;;5.75;5.45;;;;;;;20.31;47.89;100963.81;6088381;23;20120;-71
2022/05/25 06:03:19;;;;;;;5.95;5.70;;;;;;;20.94;48.00;101037.31;6098425;23;20486;-72
2022/05/25 06:05:45;;;;;;;5.82;5.53;;;;;;;20.66;47.74;100980.31;6086381;23;20037;-73
2022/05/25 06:08:16;;;;;;;5.60;5.40;;;;;;;19.84;48.50;100867.63;6107467;23;20048;-73
2022/05/25 06:10:43;;;;;;;6.10;5.80;;;;;;;19.59;47.49;100844.13;6100769;23;20013;-72
2022/05/25 06:13:10;;;;;;;5.88;5.57;;;;;;;20.87;47.82;101030.88;6120471;23;20044;-72
2022/05/25 06:21:09;;;;;;;5.47;5.28;;;;;;;17.53;56.09;101039.84;6104733;23;20025;-71
2022/05/25 06:23:36;;;;;;;5.40;5.20;;;;;;;17.05;58.60;101051.34;6082218;23;20073;-73
2022/05/25 06:26:03;;;;;;;5.80;5.50;;;;;;;16.95;60.16;101068.91;6086132;23;20100;-71
2022/05/25 06:28:29;;;;;;;7.35;6.95;;;;;;;15.91;62.98;101058.56;6116076;23;20372;-73
2022/05/25 06:30:56;;;;;;;5.90;5.60;;;;;;;15.38;63.72;100966.03;6102279;23;20022;-74
2022/05/25 06:33:22;;;;;;;7.00;6.70;;;;;;;15.91;64.96;101003.81;6095130;23;20021;-75
2022/05/25 06:35:49;;;;;;;5.40;5.20;;;;;;;16.61;64.78;101058.06;6098940;23;20025;-71
2022/05/25 06:38:16;;;;;;;5.50;5.20;;;;;;;16.38;62.80;101043.81;6116698;23;20282;-71
2022/05/25 06:40:43;;;;;;;6.00;5.70;;;;;;;15.82;62.42;100993.91;6074830;23;20089;-71
2022/05/25 06:43:09;;;;;;;5.13;4.93;;;;;;;16.16;63.40;101047.13;6072752;23;20049;-71
2022/05/25 06:45:36;;;;;;;6.40;6.10;;;;;;;16.33;62.32;101057.38;6101086;23;20045;-72
2022/05/25 06:48:03;;;;;;;5.55;5.32;;;;;;;15.95;62.87;101074.13;6081639;23;20022;-71
2022/05/25 06:50:29;;;;;;;7.00;6.70;;;;;;;15.53;63.00;101041.66;6099577;23;20030;-74
2022/05/25 06:52:55;;;;;;;5.30;5.10;;;;;;;15.99;63.18;101065.97;6066753;23;20510;-72
2022/05/25 06:55:22;;;;;;;6.70;6.40;;;;;;;15.75;62.97;101080.81;6081414;23;20022;-71
2022/05/25 06:57:49;;;;;;;5.20;5.00;;;;;;;15.75;63.31;101048.19;6086462;23;20021;-71
2022/05/25 07:00:15;;;;;;;5.10;4.90;;;;;;;16.03;63.02;101064.81;6101672;23;20162;-71
2022/05/25 07:02:42;;;;;;;5.70;5.40;;;;;;;16.01;60.48;101072.03;6085511;23;20275;-71
2022/05/25 07:05:09;;;;;;;5.30;5.10;;;;;;;15.92;61.57;101066.41;6126673;23;20036;-72
2022/05/25 07:07:37;;;;;;;6.43;6.13;;;;;;;15.72;61.92;101078.34;6101702;23;20564;-74
2022/05/25 07:10:04;;;;;;;5.10;4.90;;;;;;;15.46;61.88;101016.59;6098762;23;20501;-71
2022/05/25 07:12:32;;;;;;;6.55;6.25;;;;;;;16.18;63.15;101081.44;6113328;23;20570;-72
2022/05/25 07:14:59;;;;;;;5.22;5.03;;;;;;;16.36;61.50;101074.88;6112113;23;20021;-71
2022/05/25 07:17:25;;;;;;;6.65;6.35;;;;;;;16.16;60.84;101060.38;6097588;23;20423;-72
2022/05/25 07:19:52;;;;;;;5.20;5.00;;;;;;;16.48;61.30;101078.47;6102614;23;20094;-72
2022/05/25 07:22:19;;;;;;;6.15;5.85;;;;;;;16.63;62.29;101066.75;6095530;23;20022;-72
2022/05/25 07:24:46;;;;;;;5.00;4.80;;;;;;;16.66;60.85;101081.59;6096926;23;20100;-72
2022/05/25 07:27:12;;;;;;;5.10;4.90;;;;;;;16.42;59.05;101017.97;6108274;23;20078;-74
2022/05/25 07:29:39;;;;;;;5.43;5.20;;;;;;;16.44;59.11;101082.28;6103673;23;20027;-71
2022/05/25 07:32:09;;;;;;;5.60;5.30;;;;;;;16.73;59.28;101081.03;6115454;23;20084;-71
2022/05/25 07:34:43;;;;;;;6.43;6.13;;;;;;;16.97;59.32;101082.06;6079646;23;20184;-74
2022/05/25 07:37:16;;;;;;;5.10;4.90;;;;;;;17.17;58.18;101084.06;6113298;23;20024;-73
2022/05/25 07:39:45;;;;;;;;;;;;;;;17.29;56.78;101082.31;6115554;23;20081;-71
2022/05/25 07:42:12;;;;;;;5.53;5.32;;;;;;;17.20;56.38;101085.66;6071599;23;20303;-71
2022/05/25 07:44:50;;;;;;;5.25;5.05;;;;;;;16.89;55.97;101013.69;6077576;23;20450;-71
2022/05/25 07:47:17;;;;;;;5.28;5.07;;;;;;;16.39;57.82;101016.34;6093379;23;20419;-71
2022/05/25 07:49:43;;;;;;;5.10;4.90;;;;;;;16.82;56.38;101094.59;6101678;23;20490;-71
2022/05/25 07:52:11;;;;;;;5.60;5.40;;;;;;;16.12;56.99;101048.31;6107887;23;20105;-70
2022/05/25 07:54:41;;;;;;;5.93;5.63;;;;;;;16.71;56.01;101085.59;6094443;23;20261;-71
2022/05/25 07:57:07;;;;;;;10.00;9.50;;;;;;;16.38;56.98;101041.16;6095267;23;20831;-71
2022/05/25 07:59:34;;;;;;;7.45;7.15;;;;;;;16.52;56.77;101019.00;6076802;23;20024;-72
2022/05/25 08:07:37;;;;;;;5.75;5.55;;;;;;;16.31;51.29;100979.81;6074625;23;20006;-70
2022/05/25 08:10:11;;;;;;;5.35;5.13;;;;;;;17.18;53.99;101087.56;6100414;23;20029;-71
2022/05/25 08:12:39;;;;;;;5.53;5.22;;;;;;;16.75;53.36;100967.78;6104252;23;20026;-73
2022/05/25 08:15:07;;;;;;;4.93;4.72;;;;;;;17.52;52.29;101085.94;6118867;23;20266;-72
2022/05/25 08:17:34;;;;;;;6.57;6.28;;;;;;;17.68;50.71;101086.44;6080454;23;20014;-71
2022/05/25 08:20:01;;;;;;;5.20;4.93;;;;;;;17.74;49.09;101091.28;6116789;23;20085;-73
2022/05/25 08:22:27;;;;;;;6.82;6.53;;;;;;;17.38;48.89;101007.38;6093252;23;20097;-71
2022/05/25 08:24:54;;;;;;;5.47;5.28;;;;;;;18.00;48.50;101090.28;6081323;23;20357;-73
2022/05/25 08:27:20;;;;;;;5.88;5.63;;;;;;;18.12;48.35;101097.28;6094952;23;20034;-73
2022/05/25 08:29:46;;;;;;;4.90;4.70;;;;;;;17.70;48.62;101065.06;6065044;23;20239;-71
2022/05/25 08:32:14;;;;;;;5.63;5.32;;;;;;;17.91;49.31;101082.06;6111707;23;20665;-71
2022/05/25 08:34:41;;;;;;;5.25;5.05;;;;;;;18.34;48.18;101092.00;6085416;23;20041;-72
2022/05/25 08:37:10;;;;;;;5.70;5.40;;;;;;;18.05;47.83;101033.19;6100188;23;20070;-72
2022/05/25 08:39:36;;;;;;;5.70;5.50;;;;;;;18.12;44.65;101099.94;6104006;23;20237;-72
2022/05/25 08:42:06;;;;;;;5.20;5.00;;;;;;;17.17;46.81;101089.38;6077979;23;20033;-71
2022/05/25 08:44:33;;;;;;;7.10;6.80;;;;;;;17.53;46.63;101056.59;6093506;23;20025;-73
2022/05/25 08:47:05;;;;;;;5.00;4.80;;;;;;;17.89;45.55;101094.59;6086467;23;20474;-72
2022/05/25 08:49:34;;;;;;;6.60;6.30;;;;;;;17.50;46.24;100993.16;6109621;23;20035;-71
2022/05/25 08:52:07;;;;;;;5.10;4.90;;;;;;;17.66;45.73;101106.09;6076910;23;20032;-72
2022/05/25 08:54:36;;;;;;;6.25;5.95;;;;;;;17.73;45.95;101086.94;6108236;23;20098;-73
2022/05/25 08:57:05;;;;;;;5.00;4.80;;;;;;;17.72;46.98;101063.16;6070678;23;20081;-72
2022/05/25 08:59:37;;;;;;;6.35;6.05;;;;;;;18.21;46.86;101093.09;6116555;23;20362;-73
2022/05/25 09:02:31;;;;;;;5.03;4.82;;;;;;;17.87;45.97;101031.97;6076406;23;20423;-72
2022/05/25 09:05:23;;;;;;;5.32;5.07;;;;;;;16.92;46.30;100879.09;6121761;23;20022;-72
2022/05/25 09:08:08;;;;;;;5.22;5.03;;;;;;;18.43;45.45;101092.25;6083593;23;20356;-71
2022/05/25 09:10:40;;;;;;;6.45;6.15;;;;;;;17.79;45.08;101096.25;6098572;23;20092;-74
2022/05/25 09:13:23;;;;;;;5.10;4.90;;;;;;;17.83;46.36;101096.84;6097891;23;20057;-71
2022/05/25 09:18:47;;;;;;;5.00;4.80;;;;;;;18.37;43.33;101101.53;6074209;23;20025;-73
2022/05/25 09:21:19;;;;;;;5.10;4.90;;;;;;;18.47;44.43;101045.84;6126374;23;20027;-71
2022/05/25 09:23:46;;;;;;;5.40;5.20;;;;;;;18.50;45.33;101013.69;6115540;23;20096;-71
2022/05/25 09:26:13;;;;;;;5.05;4.85;;;;;;;19.35;43.47;101094.63;6112262;23;20017;-71
2022/05/25 09:28:44;;;;;;;5.03;4.82;;;;;;;18.85;43.28;101047.25;6084767;23;20089;-71
2022/05/25 09:31:15;;;;;;;5.15;4.95;;;;;;;18.98;43.71;101094.97;6102138;23;20021;-72
2022/05/25 09:33:51;;;;;;;5.30;5.10;;;;;;;19.06;42.23;101101.38;6080831;23;20336;-73
2022/05/25 09:36:25;;;;;;;5.40;5.18;;;;;;;18.35;44.16;101037.03;6091029;23;20049;-71
2022/05/25 09:39:14;;;;;;;5.18;4.97;;;;;;;18.84;42.92;101104.94;6107488;23;20038;-71
2022/05/25 09:41:45;;;;;;;5.32;5.13;;;;;;;18.15;43.21;101035.97;6052761;23;20087;-73
2022/05/25 09:44:18;;;;;;;5.07;4.88;;;;;;;18.71;44.76;101101.53;6091163;23;20045;-71
2022/05/25 09:46:53;;;;;;;5.00;4.80;;;;;;;18.36;43.58;101061.78;6108594;23;20430;-72
2022/05/25 09:49:40;;;;;;;5.90;5.63;;;;;;;18.56;44.15;101111.53;6111851;23;20427;-72
2022/05/25 09:52:14;;;;;;;5.43;5.22;;;;;;;18.45;42.50;101085.81;6079280;23;20478;-71
2022/05/25 09:54:46;;;;;;;5.68;5.38;;;;;;;18.88;43.61;101109.03;6114085;23;20041;-71
2022/05/25 09:57:32;;;;;;;4.88;4.68;;;;;;;19.14;42.07;101114.00;6100662;23;20558;-71
2022/05/25 10:00:05;;;;;;;5.20;5.00;;;;;;;19.23;43.11;101105.28;6107517;23;20029;-74
2022/05/25 10:02:41;;;;;;;6.53;6.22;;;;;;;18.88;41.70;101114.34;6109055;23;20017;-70
2022/05/25 10:05:27;;;;;;;5.10;4.90;;;;;;;19.11;42.10;101116.94;6059681;23;20030;-73
2022/05/25 10:08:01;;;;;;;5.20;5.00;;;;;;;19.07;41.93;101105.69;6104835;23;20059;-73
2022/05/25 10:10:50;;;;;;;7.10;6.80;;;;;;;19.48;42.16;101112.09;6078328;23;20028;-72
2022/05/25 10:13:20;;;;;;;5.13;4.93;;;;;;;19.65;39.30;101129.31;6102899;23;20431;-71
2022/05/25 10:15:51;;;;;;;5.30;5.10;;;;;;;19.23;39.00;101069.88;6082052;23;20406;-71
2022/05/25 10:18:39;;;;;;;5.55;5.32;;;;;;;19.43;39.85;101116.13;6095090;23;20104;-73
2022/05/25 10:21:13;;;;;;;5.30;5.10;;;;;;;19.34;40.63;101085.75;6117021;23;20260;-72
2022/05/25 10:23:43;;;;;;;5.30;5.10;;;;;;;19.52;39.59;101059.44;6073692;23;20481;-72
2022/05/25 10:26:15;;;;;;;5.10;4.90;;;;;;;19.26;39.65;101040.31;6111940;23;20026;-72
2022/05/25 10:29:04;;;;;;;5.18;4.97;;;;;;;19.86;38.90;101115.19;6056554;23;20407;-71
2022/05/25 10:37:35;;;;;;;5.30;5.10;;;;;;;19.50;38.57;101021.44;6102298;23;20346;-72
2022/05/25 10:40:05;;;;;;;5.20;5.00;;;;;;;19.89;37.92;101043.03;6091595;23;20013;-73
2022/05/25 10:42:39;;;;;;;6.90;6.60;;;;;;;20.33;38.05;101105.78;6099343;23;20033;-71
2022/05/25 10:45:18;;;;;;;5.10;4.90;;;;;;;19.79;37.10;101120.22;6098552;23;20025;-71
2022/05/25 10:47:51;;;;;;;5.05;4.85;;;;;;;19.82;37.85;101105.78;6065739;23;20026;-71
2022/05/25 10:50:27;;;;;;;5.43;5.20;;;;;;;20.25;38.41;101100.28;6110793;23;20025;-70
2022/05/25 10:53:36;;;;;;;5.28;5.07;;;;;;;20.84;37.68;101097.84;6061238;23;20442;-72
2022/05/25 10:56:35;;;;;;;5.40;5.20;;;;;;;20.65;37.86;101106.66;6103878;23;20025;-70
2022/05/25 10:59:19;;;;;;;5.20;5.00;;;;;;;20.80;36.82;101105.25;6094057;23;20248;-72
2022/05/25 11:01:46;;;;;;;5.53;5.32;;;;;;;21.37;38.02;101102.81;6106977;23;20021;-71
2022/05/25 11:04:36;;;;;;;5.15;4.95;;;;;;;21.65;36.93;101102.97;6083982;23;20025;-70
2022/05/25 11:07:20;;;;;;;5.40;5.20;;;;;;;22.18;35.43;101106.94;6081465;23;20026;-71
2022/05/25 11:10:06;;;;;;;5.70;5.30;;;;;;;22.17;34.47;101122.16;6113491;23;20115;-70
2022/05/25 11:12:42;;;;;;;6.60;6.30;;;;;;;21.17;35.21;101118.00;6107130;23;20085;-71
2022/05/25 11:15:15;;;;;;;5.40;5.20;;;;;;;20.96;37.17;101114.56;6079097;23;20029;-70
2022/05/25 11:18:15;;;;;;;5.57;5.38;;;;;;;20.82;36.35;101055.28;6085882;23;20022;-71
2022/05/25 11:21:19;;;;;;;5.32;5.13;;;;;;;20.06;37.55;101119.66;6104434;23;20712;-71
2022/05/25 11:24:21;;;;;;;5.50;5.30;;;;;;;19.67;37.82;101123.88;6091901;23;20579;-73
2022/05/25 11:27:04;;;;;;;5.80;5.50;;;;;;;19.74;39.86;101119.72;6080089;23;20100;-73
2022/05/25 11:29:49;;;;;;;6.70;6.40;;;;;;;20.65;38.36;101114.66;6087997;23;20029;-72
2022/05/25 11:32:34;;;;;;;5.50;5.30;;;;;;;21.01;38.46;101121.19;6077449;23;20021;-71
2022/05/25 11:35:11;;;;;;;5.40;5.20;;;;;;;20.99;36.47;101047.56;6098954;23;20032;-70
2022/05/25 11:37:49;;;;;;;5.40;5.20;;;;;;;21.40;35.44;101115.03;6104367;23;20022;-72
2022/05/25 11:40:49;;;;;;;5.82;5.57;;;;;;;21.15;36.35;101114.63;6089928;23;20010;-71
2022/05/25 11:43:51;;;;;;;5.40;5.20;;;;;;;20.75;36.22;101064.84;6110998;23;20017;-71
2022/05/25 11:46:42;;;;;;;5.53;5.32;;;;;;;21.44;34.72;101113.81;6105038;23;21182;-71
2022/05/25 11:49:58;;;;;;;6.68;6.38;;;;;;;20.72;36.19;101108.59;6082858;23;20063;-71
2022/05/25 11:52:48;;;;;;;6.15;5.85;;;;;;;21.25;36.40;101115.47;6089302;23;20505;-70
2022/05/25 11:55:47;;;;;;;5.50;5.30;;;;;;;21.51;36.02;101104.25;6087908;23;20032;-71
2022/05/25 11:58:52;;;;;;;5.25;5.05;;;;;;;21.74;36.11;101094.09;6096758;23;20033;-71
2022/05/25 12:01:37;;;;;;;5.68;5.45;;;;;;;22.28;36.39;101092.56;6098215;23;20079;-71
2022/05/25 12:04:23;;;;;;;5.35;5.15;;;;;;;22.47;35.70;101088.13;6076156;23;20030;-72
2022/05/25 12:07:06;;;;;;;6.05;5.75;;;;;;;22.44;33.28;101101.81;6097862;23;20341;-71
2022/05/25 12:09:54;;;;;;;6.70;6.40;;;;;;;21.79;33.81;101062.47;6070406;23;20077;-72
2022/05/25 12:12:38;;;;;;;6.22;5.95;;;;;;;22.21;34.83;101085.25;6107969;23;20344;-70
2022/05/25 12:15:20;;;;;;;5.38;5.18;;;;;;;22.43;33.94;101063.53;6108659;23;20029;-70
2022/05/25 12:18:06;;;;;;;5.38;5.18;;;;;;;22.09;33.05;101058.72;6107607;23;20025;-71